Time;durP1;ratioP1;P1;durP2;ratioP2;P2;SDS_P1;SDS_P2;PMS_P1;PMS_P2;Temp;Humidity;BMP_temperature;BMP_pressure;BME280_temperature;BME280_humidity;BME280_pressure;Samples;Min_cycle;Max_cycle;Signal;HPM_P1;HPM_P2
2021/04/20 00:01:33;;;;;;;;;;;;;;;;;;;;;
2021/04/20 00:04:55;;;;;;;;;;;;;;;;;;;;;
2021/04/20 00:07:55;;;;;;;;;;;;;;;;;;;;;
2021/04/20 00:20:08;;;;;;;0.50;0.50;;;;;;;7.47;44.03;100587.03;4949491;29;20036;-77
2021/04/20 00:23:59;;;;;;;;;;;;;;;;;;;;;
2021/04/20 00:32:42;;;;;;;;;;;;;;;;;;;;;
2021/04/20 00:35:27;;;;;;;0.57;0.57;;;;;;;7.36;44.75;100598.81;4909103;29;20063;-77
2021/04/20 00:38:38;;;;;;;0.50;0.50;;;;;;;7.11;44.17;100564.56;4882573;29;20037;-77
2021/04/20 00:41:47;;;;;;;0.32;0.20;;;;;;;7.24;45.35;100595.28;4913316;29;20024;-77
2021/04/20 00:44:10;;;;;;;0.85;0.50;;;;;;;7.12;44.71;100570.81;4928523;29;20074;-78
2021/04/20 00:46:48;;;;;;;;;;;;;;;;;;;;;
2021/04/20 00:49:50;;;;;;;0.60;0.60;;;;;;;7.01;45.19;100563.50;4929064;29;20561;-77
2021/04/20 00:52:49;;;;;;;1.20;0.90;;;;;;;7.10;45.46;100587.38;4928365;29;20075;-76
2021/04/20 00:55:57;;;;;;;1.50;0.90;;;;;;;6.84;45.83;100553.38;4944118;29;20103;-78
2021/04/20 01:02:13;;;;;;;;;;;;;;;;;;;;;
2021/04/20 01:04:59;;;;;;;1.75;0.85;;;;;;;6.70;46.39;100558.25;5033374;28;20472;-78
2021/04/20 01:08:24;;;;;;;;;;;;;;;;;;;;;
2021/04/20 01:52:01;;;;;;;;;;;;;;;;;;;;;
2021/04/20 01:54:44;;;;;;;;;;;;;;;;;;;;;
2021/04/20 01:57:37;;;;;;;;;;;;;;;;;;;;;
2021/04/20 02:00:23;;;;;;;;;;;;;;;;;;;;;
2021/04/20 02:02:55;;;;;;;2.17;2.08;;;;;;;5.27;50.51;100520.94;6319809;22;20070;-77
2021/04/20 02:05:23;;;;;;;1.02;0.95;;;;;;;5.41;50.54;100546.81;6317203;22;20010;-76
2021/04/20 02:07:51;;;;;;;1.67;1.00;;;;;;;5.31;50.69;100529.44;6319058;22;19995;-76
2021/04/20 02:10:25;;;;;;;0.70;0.70;;;;;;;5.49;50.60;100550.28;6316212;22;20006;-76
2021/04/20 02:13:44;;;;;;;;;;;;;;;;;;;;;
2021/04/20 02:16:49;;;;;;;2.72;0.90;;;;;;;5.55;50.45;100568.38;6304585;22;20074;-78
2021/04/20 02:23:13;;;;;;;0.85;0.63;;;;;;;5.42;50.16;100548.47;6291999;22;20091;-77
2021/04/20 02:26:05;;;;;;;0.70;0.40;;;;;;;5.34;50.34;100542.53;6266423;22;20027;-77
2021/04/20 02:28:42;;;;;;;;;;;;;;;;;;;;;
2021/04/20 02:31:18;;;;;;;;;;;;;;;;;;;;;
2021/04/20 02:34:07;;;;;;;0.75;0.75;;;;;;;5.17;49.94;100534.19;6315622;22;20098;-76
2021/04/20 02:36:54;;;;;;;;;;;;;;;;;;;;;
2021/04/20 02:39:32;;;;;;;;;;;;;;;;;;;;;
2021/04/20 02:42:07;;;;;;;0.65;0.60;;;;;;;5.20;50.24;100547.31;6315971;22;20073;-75
2021/04/20 02:44:35;;;;;;;0.80;0.70;;;;;;;5.01;51.02;100531.06;6318469;22;20321;-75
2021/04/20 02:47:20;;;;;;;;;;;;;;;;;;;;;
2021/04/20 02:49:54;;;;;;;0.50;0.50;;;;;;;5.04;50.64;100541.44;6317504;22;20026;-77
2021/04/20 02:52:32;;;;;;;0.60;0.57;;;;;;;4.96;50.67;100521.94;6318267;22;20009;-76
2021/04/20 02:55:10;;;;;;;0.55;0.50;;;;;;;5.04;50.98;100541.44;6316685;22;20009;-77
2021/04/20 02:58:06;;;;;;;0.70;0.70;;;;;;;4.94;51.07;100527.59;6313979;22;20026;-77
2021/04/20 03:00:51;;;;;;;;;;;;;;;;;;;;;
2021/04/20 03:03:40;;;;;;;0.63;0.63;;;;;;;4.88;51.48;100525.78;6341196;22;20477;-75
2021/04/20 03:06:25;;;;;;;;;;;;;;;;;;;;;
2021/04/20 03:09:09;;;;;;;0.73;0.60;;;;;;;4.87;51.13;100529.53;6341384;22;20082;-75
2021/04/20 03:12:01;;;;;;;2.15;1.05;;;;;;;4.99;50.74;100552.13;6313486;22;20033;-74
2021/04/20 03:14:43;;;;;;;;;;;;;;;;;;;;;
2021/04/20 03:17:11;;;;;;;0.40;0.40;;;;;;;4.87;51.15;100529.53;6340356;22;20074;-76
2021/04/20 03:19:36;;;;;;;0.30;0.30;;;;;;;4.74;51.58;100508.03;6324339;22;20006;-77
2021/04/20 03:22:20;;;;;;;1.70;0.77;;;;;;;4.90;51.17;100534.50;6352398;22;19998;-76
2021/04/20 03:25:06;;;;;;;2.05;1.13;;;;;;;4.97;51.75;100551.53;6318333;22;20018;-77
2021/04/20 03:27:42;;;;;;;0.70;0.52;;;;;;;4.91;51.44;100541.59;6337687;22;19995;-77
2021/04/20 03:30:09;;;;;;;1.20;0.80;;;;;;;4.90;51.83;100545.34;6335653;22;20007;-77
2021/04/20 03:32:37;;;;;;;0.70;0.70;;;;;;;4.80;51.81;100520.66;6337951;22;20007;-76
2021/04/20 03:35:16;;;;;;;0.55;0.55;;;;;;;4.89;51.31;100539.13;6313608;22;20010;-75
2021/04/20 03:38:08;;;;;;;2.80;1.05;;;;;;;4.90;52.13;100542.66;6338618;22;19999;-75
2021/04/20 03:40:36;;;;;;;0.65;0.65;;;;;;;4.71;51.87;100520.94;6309140;22;20033;-76
2021/04/20 03:43:14;;;;;;;0.77;0.70;;;;;;;4.68;51.40;100515.97;6337311;22;20421;-77
2021/04/20 03:46:30;;;;;;;;;;;;;;;;;;;;;
2021/04/20 03:49:20;;;;;;;0.87;0.87;;;;;;;4.84;51.44;100538.13;6331623;22;20095;-77
2021/04/20 03:51:51;;;;;;;1.52;1.42;;;;;;;4.59;52.22;100517.34;6311862;22;20014;-77
2021/04/20 03:54:27;;;;;;;0.65;0.63;;;;;;;4.54;52.24;100503.63;6310677;22;20037;-77
2021/04/20 03:57:03;;;;;;;1.60;0.85;;;;;;;4.68;52.57;100520.59;6338756;22;20035;-77
2021/04/20 03:59:35;;;;;;;0.40;0.40;;;;;;;4.64;52.58;100509.34;6338338;22;20004;-77
2021/04/20 04:02:02;;;;;;;0.65;0.65;;;;;;;4.65;51.91;100524.56;6311700;22;20002;-78
2021/04/20 04:04:36;;;;;;;0.40;0.40;;;;;;;4.70;52.44;100530.16;6330086;22;19999;-78
2021/04/20 04:07:05;;;;;;;1.02;0.60;;;;;;;4.64;52.07;100520.19;6311825;22;20085;-76
2021/04/20 04:09:32;;;;;;;1.00;0.95;;;;;;;4.63;52.54;100513.13;6335846;22;20018;-77
2021/04/20 04:12:14;;;;;;;;;;;;;;;;;;;;;
2021/04/20 04:14:43;;;;;;;5.53;1.38;;;;;;;4.71;53.02;100545.34;6336332;22;20078;-75
2021/04/20 04:17:32;;;;;;;2.58;2.38;;;;;;;4.48;53.92;100515.38;6311709;22;19999;-75
2021/04/20 04:20:18;;;;;;;1.58;1.48;;;;;;;4.40;53.46;100518.38;6308271;22;20002;-76
2021/04/20 04:23:02;;;;;;;4.97;3.70;;;;;;;4.50;54.63;100541.19;6334171;22;19994;-76
2021/04/20 04:25:36;;;;;;;5.82;3.08;;;;;;;4.20;54.97;100511.25;6334067;22;20406;-75
2021/04/20 04:28:03;;;;;;;4.07;3.33;;;;;;;4.16;55.16;100518.16;6338525;22;20479;-76
2021/04/20 04:30:30;;;;;;;3.97;2.90;;;;;;;4.08;55.07;100524.66;6309093;22;20445;-76
2021/04/20 04:33:07;;;;;;;3.00;2.80;;;;;;;4.09;55.65;100539.03;6329610;22;20005;-75
2021/04/20 04:35:35;;;;;;;4.05;3.22;;;;;;;4.01;55.67;100532.81;6277343;22;20035;-76
2021/04/20 04:38:01;;;;;;;4.15;3.40;;;;;;;3.82;55.97;100509.47;6334153;22;19998;-76
2021/04/20 04:40:32;;;;;;;4.63;3.80;;;;;;;3.81;56.49;100516.75;6310972;22;20052;-78
2021/04/20 04:43:00;;;;;;;4.88;4.18;;;;;;;3.84;57.63;100532.56;6311626;22;20131;-73
2021/04/20 04:45:26;;;;;;;5.30;3.80;;;;;;;3.73;58.12;100519.72;6298792;22;20413;-71
2021/04/20 04:47:52;;;;;;;2.22;2.13;;;;;;;3.73;57.13;100524.31;6307617;22;20010;-71
2021/04/20 04:50:23;;;;;;;2.33;2.20;;;;;;;3.66;57.70;100525.19;6304417;22;20015;-78
2021/04/20 04:52:52;;;;;;;4.93;3.03;;;;;;;3.68;57.78;100527.69;6307882;22;20429;-78
2021/04/20 04:55:17;;;;;;;2.42;2.17;;;;;;;3.62;57.07;100518.56;6337977;22;19999;-78
2021/04/20 04:57:46;;;;;;;2.65;1.85;;;;;;;3.69;57.64;100525.78;6283493;22;20007;-78
2021/04/20 05:00:22;;;;;;;1.55;1.27;;;;;;;3.69;56.67;100523.09;6310222;22;20005;-78
2021/04/20 05:02:54;;;;;;;1.23;1.13;;;;;;;3.71;57.01;100523.69;6295785;22;20013;-79
2021/04/20 05:05:33;;;;;;;0.65;0.65;;;;;;;3.66;56.30;100506.25;6310507;22;20010;-78
2021/04/20 05:08:09;;;;;;;;;;;;;;;;;;;;;
2021/04/20 05:10:35;;;;;;;2.67;2.05;;;;;;;3.72;57.51;100506.41;6339624;22;20093;-78
2021/04/20 05:13:22;;;;;;;6.07;2.90;;;;;;;3.97;56.89;100537.06;6304931;22;20002;-80
2021/04/20 05:15:48;;;;;;;4.28;2.92;;;;;;;3.84;58.14;100510.91;6306642;22;20059;-81
2021/04/20 05:18:14;;;;;;;2.22;1.98;;;;;;;4.12;57.20;100546.72;6337580;22;20081;-79
2021/04/20 05:20:53;;;;;;;3.75;3.45;;;;;;;3.91;57.77;100504.63;6311411;22;20131;-78
2021/04/20 05:23:41;;;;;;;2.50;2.25;;;;;;;3.99;57.45;100523.28;6311306;22;20021;-79
2021/04/20 05:26:14;;;;;;;1.52;1.10;;;;;;;4.16;57.59;100537.09;6311606;22;20009;-79
2021/04/20 05:28:43;;;;;;;1.05;0.80;;;;;;;4.10;56.13;100516.34;6311528;22;20095;-81
2021/04/20 05:31:08;;;;;;;1.10;1.00;;;;;;;4.23;56.92;100531.63;6337729;22;20002;-79
2021/04/20 05:33:33;;;;;;;1.98;0.85;;;;;;;4.27;57.00;100524.75;6338053;22;20092;-79
2021/04/20 05:36:10;;;;;;;1.90;1.77;;;;;;;4.29;56.36;100528.03;6288301;22;20014;-79
2021/04/20 05:38:37;;;;;;;1.92;1.83;;;;;;;4.35;56.43;100529.84;6309755;22;20010;-78
2021/04/20 05:41:07;;;;;;;1.02;0.95;;;;;;;4.44;56.10;100543.94;6308545;22;20014;-80
2021/04/20 05:43:41;;;;;;;1.05;0.82;;;;;;;4.52;56.83;100543.66;6255303;22;20309;-79
2021/04/20 05:46:09;;;;;;;0.82;0.82;;;;;;;4.41;55.94;100515.44;6310671;22;20011;-77
2021/04/20 05:48:35;;;;;;;0.95;0.60;;;;;;;4.53;55.75;100523.66;6329486;22;20395;-72
2021/04/20 05:51:00;;;;;;;0.70;0.47;;;;;;;4.81;55.84;100560.25;6311292;22;20042;-77
2021/04/20 05:53:28;;;;;;;0.95;0.93;;;;;;;4.75;56.33;100534.06;6336231;22;20367;-77
2021/04/20 05:55:58;;;;;;;1.10;1.02;;;;;;;4.89;56.08;100547.25;6341295;22;20128;-78
2021/04/20 05:58:27;;;;;;;1.30;1.20;;;;;;;4.83;55.46;100531.03;6314979;22;20006;-78
2021/04/20 06:01:06;;;;;;;2.92;1.13;;;;;;;4.86;55.36;100522.47;6314211;22;20029;-77
2021/04/20 06:04:01;;;;;;;;;;;;;;;;;;;;;
2021/04/20 06:06:35;;;;;;;0.50;0.50;;;;;;;5.02;55.40;100521.88;6338645;22;20053;-77
2021/04/20 06:09:21;;;;;;;1.30;0.70;;;;;;;5.22;55.89;100537.06;6332901;22;20042;-73
2021/04/20 06:11:47;;;;;;;0.93;0.93;;;;;;;5.36;55.76;100549.41;6307767;22;20014;-75
2021/04/20 06:14:15;;;;;;;1.40;1.30;;;;;;;5.45;55.18;100551.78;6284823;22;20089;-76
2021/04/20 06:17:02;;;;;;;;;;;;;;;;;;;;;
2021/04/20 06:19:29;;;;;;;1.67;1.58;;;;;;;5.64;55.40;100566.97;6336679;22;21089;-75
2021/04/20 06:21:56;;;;;;;1.50;1.05;;;;;;;5.67;55.23;100539.38;6312152;22;20054;-75
2021/04/20 06:24:26;;;;;;;0.70;0.70;;;;;;;5.90;54.77;100554.91;6337619;22;20341;-75
2021/04/20 06:26:52;;;;;;;1.60;1.38;;;;;;;5.95;55.13;100549.59;6341271;22;20018;-75
2021/04/20 06:29:18;;;;;;;0.98;0.95;;;;;;;6.13;54.88;100545.19;6255832;22;20018;-74
2021/04/20 06:31:47;;;;;;;1.00;1.00;;;;;;;6.29;54.59;100551.81;6304444;22;20298;-75
2021/04/20 06:34:33;;;;;;;0.90;0.90;;;;;;;6.53;54.21;100555.41;6309761;22;20006;-76
2021/04/20 06:37:00;;;;;;;0.70;0.70;;;;;;;6.67;54.27;100569.56;6348784;22;20421;-75
2021/04/20 06:39:29;;;;;;;2.08;0.77;;;;;;;6.65;54.32;100544.53;6330700;22;20006;-75
2021/04/20 06:44:57;;;;;;;1.40;1.30;;;;;;;6.89;54.14;100528.19;6334490;22;20003;-73
2021/04/20 06:47:44;;;;;;;1.73;0.88;;;;;;;7.00;54.08;100540.94;6309782;22;20003;-74
2021/04/20 06:50:14;;;;;;;0.77;0.77;;;;;;;7.19;53.42;100548.94;6338173;22;20460;-74
2021/04/20 06:52:52;;;;;;;0.75;0.68;;;;;;;7.37;53.84;100551.47;6311713;22;20031;-73
2021/04/20 06:55:56;;;;;;;0.45;0.45;;;;;;;7.52;53.02;100545.53;6333967;22;20065;-74
2021/04/20 06:58:31;;;;;;;1.20;1.10;;;;;;;7.76;53.71;100565.28;6333872;22;20007;-73
2021/04/20 07:01:00;;;;;;;1.40;1.30;;;;;;;7.82;53.40;100552.59;6305943;22;20002;-74
2021/04/20 07:04:10;;;;;;;2.28;2.08;;;;;;;8.02;53.08;100552.16;6342926;22;20081;-77
2021/04/20 07:06:44;;;;;;;2.55;2.42;;;;;;;8.08;52.48;100548.44;6324831;22;20063;-76
2021/04/20 07:09:18;;;;;;;3.55;1.77;;;;;;;8.31;53.05;100568.41;6299225;22;19998;-75
2021/04/20 07:11:46;;;;;;;2.80;2.60;;;;;;;8.31;52.15;100563.81;6329773;22;19999;-75
2021/04/20 07:14:24;;;;;;;2.17;2.08;;;;;;;8.52;52.43;100572.34;6337096;22;20002;-75
2021/04/20 07:17:10;;;;;;;2.83;2.63;;;;;;;8.65;52.13;100566.53;6331169;22;19999;-74
2021/04/20 07:19:55;;;;;;;1.77;1.65;;;;;;;8.74;51.90;100554.13;6276047;22;20389;-72
2021/04/20 07:22:47;;;;;;;4.55;2.80;;;;;;;8.96;52.13;100564.25;6323211;22;20433;-73
2021/04/20 07:25:24;;;;;;;2.40;2.30;;;;;;;9.05;51.82;100572.81;6291907;22;20099;-74
2021/04/20 07:28:07;;;;;;;2.95;2.75;;;;;;;9.15;51.49;100570.22;6338546;22;20002;-74
2021/04/20 07:30:43;;;;;;;3.38;2.85;;;;;;;9.28;51.24;100568.22;6311007;22;20006;-73
2021/04/20 07:33:09;;;;;;;6.68;3.63;;;;;;;9.42;51.21;100574.94;6327619;22;20002;-73
2021/04/20 07:35:47;;;;;;;3.67;2.80;;;;;;;9.48;50.63;100563.00;6328624;22;20103;-74
2021/04/20 07:38:31;;;;;;;3.72;2.45;;;;;;;9.70;51.36;100568.41;6307972;22;20370;-72
2021/04/20 07:41:18;;;;;;;3.28;2.55;;;;;;;9.88;50.75;100566.41;6329513;22;20082;-75
2021/04/20 07:44:13;;;;;;;3.17;2.92;;;;;;;10.06;50.29;100573.41;6307144;22;20038;-74
2021/04/20 07:46:46;;;;;;;3.00;2.80;;;;;;;10.19;49.92;100570.28;6303705;22;20024;-74
2021/04/20 07:49:29;;;;;;;2.13;2.03;;;;;;;10.26;49.60;100561.84;6308234;22;19998;-74
2021/04/20 07:52:01;;;;;;;2.65;2.08;;;;;;;10.50;50.16;100576.03;6336222;22;20060;-74
2021/04/20 07:54:33;;;;;;;2.10;2.00;;;;;;;10.60;49.46;100573.38;6305566;22;20033;-73
2021/04/20 07:57:26;;;;;;;1.00;1.00;;;;;;;10.86;49.40;100581.72;6311596;22;20413;-74
2021/04/20 08:00:16;;;;;;;1.73;1.13;;;;;;;11.04;49.07;100576.91;6314589;22;20003;-74
2021/04/20 08:03:05;;;;;;;2.53;2.35;;;;;;;11.22;48.88;100584.66;6356737;22;20002;-74
2021/04/20 08:05:39;;;;;;;2.78;2.67;;;;;;;11.27;48.80;100567.44;6354933;22;20030;-75
2021/04/20 08:08:18;;;;;;;2.40;2.20;;;;;;;11.45;48.85;100566.16;6354805;22;20006;-74
2021/04/20 08:10:55;;;;;;;3.05;2.00;;;;;;;11.53;48.13;100565.63;6328940;22;20013;-74
2021/04/20 08:13:38;;;;;;;3.97;3.17;;;;;;;11.76;48.05;100566.25;6329360;22;20003;-75
2021/04/20 08:16:21;;;;;;;2.92;2.78;;;;;;;11.91;47.91;100569.00;6317994;22;20088;-74
2021/04/20 08:19:10;;;;;;;3.17;2.80;;;;;;;12.14;47.84;100578.66;6338881;22;20014;-75
2021/04/20 08:21:39;;;;;;;3.00;2.53;;;;;;;12.23;47.91;100567.97;6302019;22;20015;-75
2021/04/20 08:24:07;;;;;;;2.67;2.47;;;;;;;12.41;47.64;100583.03;6309164;22;20318;-74
2021/04/20 08:26:42;;;;;;;13.93;2.67;;;;;;;12.59;47.11;100578.94;6336759;22;19999;-74
2021/04/20 08:29:22;;;;;;;4.75;3.33;;;;;;;12.72;46.54;100567.41;6336841;22;20041;-74
2021/04/20 08:31:53;;;;;;;7.05;3.63;;;;;;;12.90;46.36;100573.41;6301263;22;19999;-76
2021/04/20 08:34:25;;;;;;;4.20;3.67;;;;;;;13.01;46.21;100569.53;6305885;22;20006;-74
2021/04/20 08:37:14;;;;;;;3.53;2.60;;;;;;;13.38;45.96;100579.31;6339256;22;20007;-75
2021/04/20 08:40:06;;;;;;;2.95;2.20;;;;;;;13.68;45.34;100574.78;6307929;22;20011;-74
2021/04/20 08:42:40;;;;;;;3.85;2.22;;;;;;;14.01;44.84;100575.13;6335530;22;20007;-75
2021/04/20 08:45:26;;;;;;;3.17;2.87;;;;;;;14.35;43.46;100579.81;6308957;22;20037;-75
2021/04/20 08:48:01;;;;;;;;;;;;;;;14.90;42.33;100579.63;6336424;22;19999;-73
2021/04/20 08:50:30;;;;;;;3.22;2.83;;;;;;;15.07;42.17;100573.66;6298500;22;19914;-75
2021/04/20 08:53:16;;;;;;;6.05;3.17;;;;;;;15.62;41.34;100577.94;6291070;22;19999;-76
2021/04/20 08:56:03;;;;;;;3.22;3.03;;;;;;;16.31;41.21;100560.97;6285578;22;20010;-75
2021/04/20 08:58:50;;;;;;;2.80;2.28;;;;;;;17.26;40.55;100586.31;6276129;22;20040;-74
2021/04/20 09:02:13;;;;;;;2.55;2.38;;;;;;;17.92;39.74;100586.06;6281627;22;20837;-75
2021/04/20 09:05:16;;;;;;;10.40;3.72;;;;;;;18.56;37.92;100582.31;6253468;22;20019;-74
2021/04/20 09:07:53;;;;;;;2.35;2.15;;;;;;;18.87;38.21;100576.00;6228878;22;20007;-74
2021/04/20 09:10:22;;;;;;;2.05;1.85;;;;;;;19.25;37.23;100578.25;6289285;22;20003;-75
2021/04/20 09:12:55;;;;;;;2.25;1.70;;;;;;;19.74;37.47;100585.72;6284033;22;20014;-74
2021/04/20 09:15:25;;;;;;;2.13;2.03;;;;;;;20.33;36.08;100580.53;6305168;22;19995;-74
2021/04/20 09:17:56;;;;;;;1.13;1.02;;;;;;;20.95;36.53;100577.66;6303685;22;20076;-75
2021/04/20 09:20:32;;;;;;;1.90;1.35;;;;;;;21.86;35.97;100591.25;6306398;22;20011;-76
2021/04/20 09:23:05;;;;;;;2.83;2.17;;;;;;;22.71;35.17;100578.88;6296901;22;20003;-75
2021/04/20 09:25:54;;;;;;;3.83;3.63;;;;;;;23.52;34.03;100589.53;6297344;22;20617;-74
2021/04/20 09:28:41;;;;;;;2.50;2.35;;;;;;;24.46;33.24;100568.00;6294674;22;20011;-76
2021/04/20 09:31:17;;;;;;;1.10;1.10;;;;;;;25.53;32.76;100583.13;6290771;22;20015;-76
2021/04/20 09:33:54;;;;;;;2.55;2.45;;;;;;;26.38;29.65;100592.97;6296499;22;20436;-76
2021/04/20 09:36:22;;;;;;;1.58;1.48;;;;;;;27.05;30.12;100591.84;6301482;22;20018;-74
2021/04/20 09:38:50;;;;;;;0.90;0.90;;;;;;;27.92;29.92;100593.97;6305453;22;20026;-75
2021/04/20 09:41:22;;;;;;;1.35;1.25;;;;;;;28.83;29.20;100591.88;6301824;22;20006;-76
2021/04/20 09:44:09;;;;;;;0.93;0.90;;;;;;;29.97;27.48;100595.97;6305136;22;20467;-74
2021/04/20 09:47:24;;;;;;;2.70;2.50;;;;;;;30.83;25.07;100592.63;6304033;22;20010;-74
2021/04/20 09:49:55;;;;;;;1.30;1.20;;;;;;;31.25;24.22;100598.72;6276553;22;20015;-74
2021/04/20 09:52:22;;;;;;;1.77;1.67;;;;;;;31.48;23.17;100596.28;6331818;22;20425;-74
2021/04/20 09:54:59;;;;;;;1.08;1.08;;;;;;;31.94;22.93;100599.44;6306294;22;20010;-75
2021/04/20 09:57:28;;;;;;;1.55;1.45;;;;;;;32.26;22.06;100587.22;6328106;22;20015;-75
2021/04/20 10:00:08;;;;;;;1.75;1.65;;;;;;;32.64;21.30;100587.41;6326200;22;20024;-75
2021/04/20 10:02:46;;;;;;;1.98;1.88;;;;;;;33.20;20.52;100599.53;6338919;22;20051;-75
2021/04/20 10:05:14;;;;;;;1.00;1.00;;;;;;;33.47;20.00;100593.25;6334238;22;20077;-81
2021/04/20 10:08:17;;;;;;;3.22;1.40;;;;;;;33.99;18.28;100597.16;6320472;22;20007;-81
2021/04/20 10:10:48;;;;;;;3.25;1.00;;;;;;;34.18;18.92;100605.00;6348078;22;19999;-80
2021/04/20 10:13:40;;;;;;;0.80;0.80;;;;;;;34.94;18.15;100596.28;6333089;22;19999;-80
2021/04/20 10:16:07;;;;;;;1.73;1.63;;;;;;;35.15;17.85;100591.47;6327496;22;20005;-80
2021/04/20 10:18:39;;;;;;;1.83;1.05;;;;;;;35.75;17.99;100599.34;6354804;22;20002;-81
2021/04/20 10:22:02;;;;;;;0.95;0.95;;;;;;;36.48;16.34;100593.81;6316860;22;20484;-81
2021/04/20 10:24:30;;;;;;;0.88;0.88;;;;;;;36.62;17.06;100599.16;6201305;23;19988;-79
2021/04/20 10:27:05;;;;;;;1.48;1.38;;;;;;;37.18;16.48;100588.88;6230131;23;20008;-80
2021/04/20 10:29:51;;;;;;;1.25;0.93;;;;;;;37.91;15.07;100597.13;6311748;22;19991;-80
2021/04/20 10:32:30;;;;;;;1.33;1.17;;;;;;;38.16;14.63;100595.59;6358150;22;20038;-80
2021/04/20 10:34:57;;;;;;;1.58;1.30;;;;;;;37.93;14.55;100590.97;6348803;22;20006;-80
2021/04/20 10:37:38;;;;;;;0.80;0.80;;;;;;;38.14;14.68;100596.03;6348688;22;20078;-80
2021/04/20 10:40:45;;;;;;;1.20;1.10;;;;;;;38.73;14.04;100590.22;6347489;22;20029;-82
2021/04/20 10:43:22;;;;;;;1.25;1.05;;;;;;;38.98;13.80;100588.56;6319785;22;20011;-79
2021/04/20 10:45:48;;;;;;;1.25;1.15;;;;;;;39.16;13.51;100588.00;6318125;22;20043;-80
2021/04/20 10:48:30;;;;;;;;;;;;;;;;;;;;;
2021/04/20 10:51:09;;;;;;;0.60;0.60;;;;;;;39.84;13.30;100581.88;6343742;22;20038;-80
2021/04/20 10:53:47;;;;;;;0.75;0.75;;;;;;;40.03;12.65;100572.19;6313237;22;20005;-79
2021/04/20 10:56:15;;;;;;;0.70;0.70;;;;;;;40.37;12.64;100576.19;6341889;22;20055;-78
2021/04/20 10:58:54;;;;;;;1.65;0.90;;;;;;;40.70;11.59;100569.19;6341833;22;20007;-80
2021/04/20 11:01:30;;;;;;;1.13;1.02;;;;;;;40.80;11.60;100573.66;6316766;22;20437;-80
2021/04/20 11:04:03;;;;;;;0.60;0.60;;;;;;;40.91;11.42;100581.84;6341210;22;19998;-80
2021/04/20 11:07:14;;;;;;;3.05;1.20;;;;;;;41.50;10.80;100588.31;6322313;22;20015;-79
2021/04/20 11:10:26;;;;;;;0.85;0.85;;;;;;;41.52;10.35;100571.41;6336933;22;19994;-82
2021/04/20 11:12:50;;;;;;;0.70;0.70;;;;;;;41.08;10.55;100560.22;6359431;22;20011;-80
2021/04/20 11:15:38;;;;;;;;;;;;;;;;;;;;;
2021/04/20 11:18:21;;;;;;;;;;;;;;;;;;;;;
2021/04/20 11:20:52;;;;;;;1.08;0.60;;;;;;;42.44;10.15;100560.22;6360478;22;19990;-80
2021/04/20 11:26:26;;;;;;;0.40;0.40;;;;;;;43.16;9.96;100548.03;6328342;22;20014;-80
2021/04/20 11:29:23;;;;;;;;;;;;;;;;;;;;;
2021/04/20 11:31:51;;;;;;;2.95;0.68;;;;;;;44.16;9.26;100553.34;6343187;22;20026;-79
2021/04/20 11:34:46;;;;;;;;;;;;;;;;;;;;;
2021/04/20 11:37:33;;;;;;;2.75;1.05;;;;;;;45.06;8.67;100564.69;6345856;22;20030;-80
2021/04/20 11:40:51;;;;;;;0.40;0.40;;;;;;;45.20;8.19;100558.03;6316242;22;20013;-79
2021/04/20 11:43:27;;;;;;;0.70;0.65;;;;;;;44.58;7.41;100543.53;6336645;22;20011;-80
2021/04/20 11:46:16;;;;;;;0.85;0.73;;;;;;;42.59;8.04;100546.75;6320898;22;19998;-80
2021/04/20 11:48:52;;;;;;;1.10;1.10;;;;;;;41.09;8.90;100527.38;6341926;22;20022;-79
2021/04/20 11:51:32;;;;;;;0.52;0.52;;;;;;;40.42;9.47;100515.44;6317542;22;20341;-79
2021/04/20 11:53:58;;;;;;;1.10;1.00;;;;;;;39.37;9.20;100506.34;6290378;22;20007;-79
2021/04/20 11:56:25;;;;;;;0.70;0.70;;;;;;;38.00;9.90;100511.66;6308264;22;20307;-78
2021/04/20 11:58:57;;;;;;;0.70;0.70;;;;;;;36.81;10.38;100522.66;6315712;22;20010;-79
2021/04/20 12:01:26;;;;;;;0.30;0.30;;;;;;;36.95;11.21;100530.81;6344167;22;20003;-80
2021/04/20 12:03:54;;;;;;;0.40;0.40;;;;;;;38.32;11.58;100521.28;6346715;22;19998;-79
2021/04/20 12:06:24;;;;;;;0.82;0.82;;;;;;;39.47;11.15;100521.53;6317207;22;20002;-80
2021/04/20 12:08:55;;;;;;;0.80;0.50;;;;;;;39.90;10.33;100522.81;6321216;22;20074;-80
2021/04/20 12:11:28;;;;;;;0.75;0.75;;;;;;;39.24;9.88;100521.50;6342615;22;20007;-80
2021/04/20 12:13:56;;;;;;;0.73;0.73;;;;;;;38.23;10.18;100513.41;6293396;22;20007;-80
2021/04/20 12:16:23;;;;;;;0.98;0.98;;;;;;;37.53;10.33;100509.34;6318602;22;19999;-81
2021/04/20 12:18:51;;;;;;;0.70;0.70;;;;;;;36.98;11.09;100498.59;6293115;22;20011;-80
2021/04/20 12:21:25;;;;;;;1.35;1.20;;;;;;;36.94;10.88;100503.56;6318172;22;20351;-80
2021/04/20 12:23:58;;;;;;;0.80;0.77;;;;;;;36.00;11.02;100502.94;6310393;22;20055;-78
2021/04/20 12:26:26;;;;;;;0.63;0.63;;;;;;;35.06;11.53;100508.81;6315778;22;19994;-80
2021/04/20 12:28:56;;;;;;;0.82;0.63;;;;;;;35.26;12.06;100501.13;6342900;22;20001;-80
2021/04/20 12:31:32;;;;;;;1.58;0.60;;;;;;;35.43;11.85;100504.91;6345734;22;19999;-80
2021/04/20 12:33:58;;;;;;;0.98;0.98;;;;;;;34.48;11.80;100498.41;6347197;22;20006;-79
2021/04/20 12:36:45;;;;;;;4.28;1.10;;;;;;;33.35;12.29;100492.56;6346483;22;20007;-81
2021/04/20 12:39:14;;;;;;;1.30;1.30;;;;;;;32.05;12.57;100486.28;6344817;22;20010;-80
2021/04/20 12:41:42;;;;;;;1.23;1.13;;;;;;;30.94;13.86;100497.47;6344688;22;20106;-79
2021/04/20 12:44:11;;;;;;;0.73;0.73;;;;;;;30.04;13.90;100471.97;6318362;22;19987;-80
2021/04/20 12:46:41;;;;;;;2.92;1.35;;;;;;;29.46;14.76;100478.56;6318107;22;20087;-80
2021/04/20 12:49:08;;;;;;;1.42;1.25;;;;;;;29.24;15.31;100481.25;6347165;22;20329;-80
2021/04/20 12:51:39;;;;;;;1.27;1.27;;;;;;;30.31;15.12;100491.34;6316994;22;20022;-77
2021/04/20 12:54:08;;;;;;;0.77;0.77;;;;;;;30.80;14.94;100486.97;6313584;22;19999;-79
2021/04/20 12:56:37;;;;;;;0.35;0.35;;;;;;;31.17;14.85;100484.16;6335965;22;19998;-79
2021/04/20 12:59:05;;;;;;;0.80;0.80;;;;;;;33.06;15.10;100486.38;6339232;22;20002;-80
2021/04/20 13:01:34;;;;;;;1.63;1.52;;;;;;;35.07;13.62;100493.38;6311108;22;20020;-81
2021/04/20 13:08:11;;;;;;;0.93;0.60;;;;;;;38.93;12.39;100472.75;6265059;22;20024;-75
2021/04/20 13:10:37;;;;;;;2.37;1.23;;;;;;;40.61;11.01;100492.56;6338363;22;20050;-75
2021/04/20 13:13:16;;;;;;;0.95;0.95;;;;;;;41.34;10.19;100491.09;6313664;22;20002;-74
2021/04/20 13:19:59;;;;;;;;;;;;;;;;;;;;;
2021/04/20 13:26:24;;;;;;;;;;;;;;;;;;;;;
2021/04/20 13:35:59;;;;;;;0.73;0.73;;;;;;;45.19;7.63;100487.19;6139321;23;20009;-80
2021/04/20 13:38:29;;;;;;;0.60;0.60;;;;;;;45.57;7.49;100482.34;6232294;22;20421;-77
2021/04/20 13:41:03;;;;;;;0.75;0.68;;;;;;;46.20;7.33;100483.69;6339767;22;19995;-77
2021/04/20 13:43:33;;;;;;;0.35;0.35;;;;;;;47.03;6.95;100476.00;6305854;22;20005;-76
2021/04/20 13:46:45;;;;;;;0.30;0.30;;;;;;;47.64;6.99;100475.88;6337908;22;20002;-79
2021/04/20 13:52:19;;;;;;;2.05;0.50;;;;;;;45.25;6.17;100455.53;6309337;22;20029;-77
2021/04/20 13:54:54;;;;;;;3.25;0.60;;;;;;;44.50;7.07;100464.56;6340712;22;20333;-78
2021/04/20 13:57:30;;;;;;;0.82;0.82;;;;;;;44.21;6.98;100448.13;6306292;22;20061;-78
2021/04/20 14:00:05;;;;;;;0.50;0.50;;;;;;;43.49;6.85;100450.09;6311157;22;20013;-79
2021/04/20 14:02:35;;;;;;;0.80;0.80;;;;;;;43.68;7.29;100449.88;6306768;22;20006;-78
2021/04/20 14:05:11;;;;;;;0.70;0.70;;;;;;;44.65;7.14;100449.31;6307614;22;20014;-80
2021/04/20 14:07:42;;;;;;;0.80;0.80;;;;;;;44.56;6.55;100439.47;6312221;22;20074;-76
2021/04/20 14:10:31;;;;;;;0.98;0.98;;;;;;;44.66;6.68;100439.34;6306116;22;20006;-77
2021/04/20 14:13:08;;;;;;;0.77;0.47;;;;;;;44.72;6.55;100448.88;6313841;22;20072;-79
2021/04/20 14:16:04;;;;;;;0.80;0.80;;;;;;;43.49;6.41;100438.59;6339171;22;20097;-78
2021/04/20 14:18:50;;;;;;;0.90;0.90;;;;;;;41.42;7.02;100420.66;6312208;22;20007;-81
2021/04/20 14:21:25;;;;;;;0.43;0.43;;;;;;;39.66;7.61;100442.38;6316310;22;20010;-79
2021/04/20 14:23:52;;;;;;;0.73;0.60;;;;;;;38.23;8.07;100432.66;6342854;22;19999;-77
2021/04/20 14:26:20;;;;;;;0.50;0.50;;;;;;;36.86;8.94;100423.19;6342742;22;20360;-78
2021/04/20 14:28:47;;;;;;;0.73;0.55;;;;;;;35.86;9.27;100426.44;6310005;22;20002;-79
2021/04/20 14:31:15;;;;;;;2.00;0.75;;;;;;;34.83;9.68;100428.09;6313161;22;20098;-79
2021/04/20 14:33:43;;;;;;;0.90;0.90;;;;;;;33.80;10.32;100411.44;6306696;22;20371;-79
2021/04/20 14:36:29;;;;;;;1.20;0.50;;;;;;;32.94;10.83;100414.03;6312692;22;20003;-79
2021/04/20 14:38:55;;;;;;;0.60;0.60;;;;;;;32.35;11.14;100415.78;6311062;22;20027;-78